Time,TemperatureF,DewpointF,PressureIn,WindDirection,WindDirectionDegrees,WindSpeedMPH,WindSpeedGustMPH,Humidity,HourlyPrecipIn,Conditions,Clouds,dailyrainin,SoftwareType,DateUTC
2013-02-19 00:03:00,29.8,26.0,29.83,SE,135,0.0,0.0,86,0.00,,,0.00,WUHU21623XXSP,2013-02-19 08:03:00,
2013-02-19 00:08:00,30.0,26.5,29.83,SE,135,0.0,0.0,87,0.00,,,0.00,WUHU21623XXSP,2013-02-19 08:08:00,
2013-02-19 00:13:00,30.2,26.7,29.83,SE,135,0.0,0.0,87,0.00,,,0.00,WUHU21623XXSP,2013-02-19 08:13:00,
2013-02-19 00:18:00,30.4,26.6,29.83,SE,135,0.0,0.0,86,0.00,,,0.00,WUHU21623XXSP,2013-02-19 08:18:00,
2013-02-19 00:23:00,30.6,26.8,29.83,SE,135,0.0,0.0,86,0.00,,,0.00,WUHU21623XXSP,2013-02-19 08:23:00,
2013-02-19 00:28:00,30.7,26.9,29.83,SE,135,0.0,0.0,86,0.00,,,0.00,WUHU21623XXSP,2013-02-19 08:28:00,
2013-02-19 00:33:00,31.3,27.5,29.83,SE,135,0.0,0.0,86,0.00,,,0.00,WUHU21623XXSP,2013-02-19 08:33:00,
2013-02-19 00:38:00,31.3,27.5,29.83,SE,135,0.0,0.0,86,0.00,,,0.00,WUHU21623XXSP,2013-02-19 08:38:00,
2013-02-19 00:43:00,31.5,28.0,29.83,SE,135,0.0,0.0,87,0.00,,,0.00,WUHU21623XXSP,2013-02-19 08:43:00,
2013-02-19 00:48:00,31.3,27.8,29.83,SE,135,0.0,0.0,87,0.00,,,0.00,WUHU21623XXSP,2013-02-19 08:48:00,
2013-02-19 00:53:00,31.3,27.8,29.83,SE,135,0.0,0.0,87,0.00,,,0.00,WUHU21623XXSP,2013-02-19 08:53:00,
2013-02-19 00:58:00,31.3,27.8,29.83,SE,135,0.0,0.0,87,0.00,,,0.00,WUHU21623XXSP,2013-02-19 08:58:00,
2013-02-19 01:03:00,31.6,28.4,29.83,ESE,112,0.0,0.0,88,0.00,,,0.00,WUHU21623XXSP,2013-02-19 09:03:00,
2013-02-19 01:08:00,31.6,28.4,29.82,ESE,112,0.0,0.0,88,0.00,,,0.00,WUHU21623XXSP,2013-02-19 09:08:00,
2013-02-19 01:13:00,31.5,28.3,29.82,ESE,112,0.0,0.0,88,0.00,,,0.00,WUHU21623XXSP,2013-02-19 09:13:00,
2013-02-19 01:18:00,31.3,28.1,29.82,ESE,112,0.0,0.0,88,0.00,,,0.00,WUHU21623XXSP,2013-02-19 09:18:00,
2013-02-19 01:23:00,31.3,28.3,29.82,ESE,112,0.0,0.0,89,0.00,,,0.00,WUHU21623XXSP,2013-02-19 09:23:00,
2013-02-19 01:28:00,31.3,28.3,29.82,ESE,112,0.0,0.0,89,0.00,,,0.00,WUHU21623XXSP,2013-02-19 09:28:00,
2013-02-19 01:33:00,31.1,28.4,29.82,ESE,112,0.0,0.0,90,0.00,,,0.00,WUHU21623XXSP,2013-02-19 09:33:00,
2013-02-19 01:38:00,30.9,28.5,29.82,ESE,112,0.0,0.0,91,0.00,,,0.00,WUHU21623XXSP,2013-02-19 09:38:00,
2013-02-19 01:43:00,30.9,28.5,29.82,ESE,112,0.0,0.0,91,0.00,,,0.00,WUHU21623XXSP,2013-02-19 09:43:00,
2013-02-19 01:48:00,30.9,28.7,29.82,ESE,112,0.0,0.0,92,0.00,,,0.00,WUHU21623XXSP,2013-02-19 09:48:00,
2013-02-19 01:53:00,30.9,28.7,29.82,ESE,112,1.8,1.8,92,0.00,,,0.00,WUHU21623XXSP,2013-02-19 09:53:00,
2013-02-19 01:58:00,30.9,29.0,29.82,SE,135,5.8,5.8,93,0.00,,,0.00,WUHU21623XXSP,2013-02-19 09:58:00,
2013-02-19 02:03:00,30.9,29.0,29.82,SE,135,5.8,5.8,93,0.00,,,0.00,WUHU21623XXSP,2013-02-19 10:03:00,
2013-02-19 02:08:00,30.7,29.1,29.82,SE,135,0.0,5.8,94,0.00,,,0.00,WUHU21623XXSP,2013-02-19 10:08:00,
2013-02-19 02:13:00,30.7,29.1,29.82,SE,135,0.0,5.8,94,0.00,,,0.00,WUHU21623XXSP,2013-02-19 10:13:00,
2013-02-19 02:18:00,30.7,29.1,29.82,SE,135,0.0,0.0,94,0.00,,,0.00,WUHU21623XXSP,2013-02-19 10:18:00,
2013-02-19 02:23:00,30.7,29.1,29.82,SE,135,0.0,0.0,94,0.00,,,0.00,WUHU21623XXSP,2013-02-19 10:23:00,
2013-02-19 02:28:00,30.6,29.2,29.82,SE,135,0.0,0.0,95,0.00,,,0.00,WUHU21623XXSP,2013-02-19 10:28:00,
2013-02-19 02:33:00,30.6,29.2,29.81,SE,135,0.0,0.0,95,0.00,,,0.00,WUHU21623XXSP,2013-02-19 10:33:00,
2013-02-19 02:38:00,30.4,29.0,29.81,SE,135,0.0,0.0,95,0.00,,,0.00,WUHU21623XXSP,2013-02-19 10:38:00,
2013-02-19 02:43:00,30.4,29.0,29.81,SE,135,0.0,0.0,95,0.00,,,0.00,WUHU21623XXSP,2013-02-19 10:43:00,
2013-02-19 02:48:00,30.4,29.0,29.81,SE,135,0.0,0.0,95,0.00,,,0.00,WUHU21623XXSP,2013-02-19 10:48:00,
2013-02-19 02:53:00,30.4,29.0,29.81,SE,135,0.0,0.0,95,0.00,,,0.00,WUHU21623XXSP,2013-02-19 10:53:00,
2013-02-19 02:58:00,30.4,29.0,29.81,SE,135,0.0,0.0,95,0.00,,,0.00,WUHU21623XXSP,2013-02-19 10:58:00,
2013-02-19 03:03:00,30.2,28.8,29.81,SE,135,0.0,0.0,95,0.00,,,0.00,WUHU21623XXSP,2013-02-19 11:03:00,
2013-02-19 03:08:00,30.2,28.8,29.81,SE,135,0.0,0.0,95,0.00,,,0.00,WUHU21623XXSP,2013-02-19 11:08:00,
2013-02-19 03:13:00,30.2,28.8,29.81,SE,135,0.0,0.0,95,0.00,,,0.00,WUHU21623XXSP,2013-02-19 11:13:00,
2013-02-19 03:18:00,30.2,28.8,29.81,SE,135,0.0,0.0,95,0.00,,,0.00,WUHU21623XXSP,2013-02-19 11:18:00,
2013-02-19 03:23:00,30.2,28.8,29.80,SE,135,0.0,0.0,95,0.00,,,0.00,WUHU21623XXSP,2013-02-19 11:23:00,
2013-02-19 03:28:00,30.2,28.8,29.80,SE,135,0.0,0.0,95,0.00,,,0.00,WUHU21623XXSP,2013-02-19 11:28:00,
2013-02-19 03:33:00,30.2,29.1,29.80,SE,135,0.0,0.0,96,0.00,,,0.00,WUHU21623XXSP,2013-02-19 11:33:00,
2013-02-19 03:38:00,30.4,29.3,29.80,SE,135,0.0,0.0,96,0.00,,,0.00,WUHU21623XXSP,2013-02-19 11:38:00,
2013-02-19 03:43:00,30.4,29.3,29.80,SE,135,0.0,0.0,96,0.00,,,0.00,WUHU21623XXSP,2013-02-19 11:43:00,
2013-02-19 03:48:00,30.4,29.3,29.80,SE,135,0.0,0.0,96,0.00,,,0.00,WUHU21623XXSP,2013-02-19 11:48:00,
2013-02-19 03:53:00,30.4,29.3,29.80,SE,135,0.0,0.0,96,0.00,,,0.00,WUHU21623XXSP,2013-02-19 11:53:00,
2013-02-19 03:58:00,30.4,29.3,29.80,SE,135,0.0,0.0,96,0.00,,,0.00,WUHU21623XXSP,2013-02-19 11:58:00,
2013-02-19 04:03:00,30.4,29.3,29.80,SE,135,0.0,0.0,96,0.00,,,0.00,WUHU21623XXSP,2013-02-19 12:03:00,
2013-02-19 04:08:00,30.4,29.3,29.80,SE,135,0.0,0.0,96,0.00,,,0.00,WUHU21623XXSP,2013-02-19 12:08:00,
2013-02-19 04:13:00,30.4,29.3,29.80,SE,135,0.0,0.0,96,0.00,,,0.00,WUHU21623XXSP,2013-02-19 12:13:00,
2013-02-19 04:18:00,30.2,29.1,29.80,SE,135,0.0,0.0,96,0.00,,,0.00,WUHU21623XXSP,2013-02-19 12:18:00,
2013-02-19 04:23:00,30.2,29.1,29.80,SE,135,0.0,0.0,96,0.00,,,0.00,WUHU21623XXSP,2013-02-19 12:23:00,
2013-02-19 04:28:00,30.2,29.1,29.80,SE,135,0.0,0.0,96,0.00,,,0.00,WUHU21623XXSP,2013-02-19 12:28:00,
2013-02-19 04:33:00,30.2,29.1,29.80,SE,135,0.0,0.0,96,0.00,,,0.00,WUHU21623XXSP,2013-02-19 12:33:00,
2013-02-19 04:38:00,30.2,29.1,29.80,SE,135,0.0,0.0,96,0.00,,,0.00,WUHU21623XXSP,2013-02-19 12:38:00,
2013-02-19 04:43:00,30.2,29.1,29.80,SE,135,0.0,0.0,96,0.00,,,0.00,WUHU21623XXSP,2013-02-19 12:43:00,
2013-02-19 04:48:00,30.0,28.9,29.80,SE,135,0.0,0.0,96,0.00,,,0.00,WUHU21623XXSP,2013-02-19 12:48:00,
2013-02-19 04:53:00,30.0,28.9,29.80,SE,135,0.0,0.0,96,0.00,,,0.00,WUHU21623XXSP,2013-02-19 12:53:00,
2013-02-19 04:58:00,30.0,28.9,29.80,SE,135,0.0,0.0,96,0.00,,,0.00,WUHU21623XXSP,2013-02-19 12:58:00,
2013-02-19 05:03:00,30.0,28.9,29.79,SE,135,0.0,0.0,96,0.00,,,0.00,WUHU21623XXSP,2013-02-19 13:03:00,
2013-02-19 05:08:00,30.0,28.9,29.79,SE,135,0.0,0.0,96,0.00,,,0.00,WUHU21623XXSP,2013-02-19 13:08:00,
2013-02-19 05:13:00,30.0,28.9,29.80,SE,135,0.0,0.0,96,0.00,,,0.00,WUHU21623XXSP,2013-02-19 13:13:00,
2013-02-19 05:18:00,30.0,28.9,29.79,SE,135,0.0,0.0,96,0.00,,,0.00,WUHU21623XXSP,2013-02-19 13:18:00,
2013-02-19 05:23:00,30.0,28.9,29.80,SE,135,0.0,0.0,96,0.00,,,0.00,WUHU21623XXSP,2013-02-19 13:23:00,
2013-02-19 05:28:00,30.0,28.9,29.79,SE,135,0.0,0.0,96,0.00,,,0.00,WUHU21623XXSP,2013-02-19 13:28:00,
2013-02-19 05:33:00,30.0,28.9,29.79,SE,135,0.0,0.0,96,0.00,,,0.00,WUHU21623XXSP,2013-02-19 13:33:00,
2013-02-19 05:38:00,30.0,29.2,29.79,SE,135,0.0,0.0,97,0.00,,,0.00,WUHU21623XXSP,2013-02-19 13:38:00,
2013-02-19 05:43:00,30.0,29.2,29.79,SE,135,0.0,0.0,97,0.00,,,0.00,WUHU21623XXSP,2013-02-19 13:43:00,
2013-02-19 05:48:00,30.0,28.9,29.79,SE,135,0.0,0.0,96,0.00,,,0.00,WUHU21623XXSP,2013-02-19 13:48:00,
2013-02-19 05:53:00,30.0,28.9,29.79,SE,135,0.0,0.0,96,0.00,,,0.00,WUHU21623XXSP,2013-02-19 13:53:00,
2013-02-19 05:58:00,30.0,28.9,29.79,SE,135,0.0,0.0,96,0.00,,,0.00,WUHU21623XXSP,2013-02-19 13:58:00,
2013-02-19 06:03:00,30.0,28.9,29.79,SE,135,0.0,0.0,96,0.00,,,0.00,WUHU21623XXSP,2013-02-19 14:03:00,
2013-02-19 06:08:00,30.0,28.9,29.79,SE,135,0.0,0.0,96,0.00,,,0.00,WUHU21623XXSP,2013-02-19 14:08:00,
2013-02-19 06:13:00,30.0,28.9,29.79,SE,135,0.0,0.0,96,0.00,,,0.00,WUHU21623XXSP,2013-02-19 14:13:00,
2013-02-19 06:18:00,30.0,28.9,29.79,SE,135,0.0,0.0,96,0.00,,,0.00,WUHU21623XXSP,2013-02-19 14:18:00,
2013-02-19 06:23:00,30.0,29.2,29.79,SE,135,0.0,0.0,97,0.00,,,0.00,WUHU21623XXSP,2013-02-19 14:23:00,
2013-02-19 06:28:00,30.0,29.2,29.79,SE,135,0.0,0.0,97,0.00,,,0.00,WUHU21623XXSP,2013-02-19 14:28:00,
2013-02-19 06:33:00,30.0,29.2,29.79,SE,135,0.0,0.0,97,0.00,,,0.00,WUHU21623XXSP,2013-02-19 14:33:00,
2013-02-19 06:38:00,29.8,29.0,29.79,SE,135,0.0,0.0,97,0.00,,,0.00,WUHU21623XXSP,2013-02-19 14:38:00,
2013-02-19 06:43:00,29.8,29.0,29.79,SE,135,0.0,0.0,97,0.00,,,0.00,WUHU21623XXSP,2013-02-19 14:43:00,
2013-02-19 06:48:00,29.8,29.0,29.79,SE,135,0.0,0.0,97,0.00,,,0.00,WUHU21623XXSP,2013-02-19 14:48:00,
2013-02-19 06:53:00,29.8,29.0,29.79,SE,135,0.0,0.0,97,0.00,,,0.00,WUHU21623XXSP,2013-02-19 14:53:00,
2013-02-19 06:58:00,29.8,29.0,29.79,SE,135,0.0,0.0,97,0.00,,,0.00,WUHU21623XXSP,2013-02-19 14:58:00,
2013-02-19 07:03:00,30.0,29.2,29.79,SE,135,0.0,0.0,97,0.00,,,0.00,WUHU21623XXSP,2013-02-19 15:03:00,
2013-02-19 07:08:00,30.0,29.2,29.79,SE,135,0.0,0.0,97,0.00,,,0.00,WUHU21623XXSP,2013-02-19 15:08:00,
2013-02-19 07:13:00,30.0,29.2,29.79,SE,135,0.0,0.0,97,0.00,,,0.00,WUHU21623XXSP,2013-02-19 15:13:00,
2013-02-19 07:19:00,30.0,29.2,29.79,SE,135,0.0,0.0,97,0.00,,,0.00,WUHU21623XXSP,2013-02-19 15:19:00,
2013-02-19 07:23:00,30.2,29.4,29.80,SE,135,0.0,0.0,97,0.00,,,0.00,WUHU21623XXSP,2013-02-19 15:23:00,
2013-02-19 07:29:00,30.2,29.4,29.80,SE,135,0.0,0.0,97,0.00,,,0.00,WUHU21623XXSP,2013-02-19 15:29:00,
2013-02-19 07:34:00,30.4,29.6,29.79,SE,135,0.0,0.0,97,0.00,,,0.00,WUHU21623XXSP,2013-02-19 15:34:00,
2013-02-19 07:38:00,30.6,29.8,29.79,SE,135,0.0,0.0,97,0.00,,,0.00,WUHU21623XXSP,2013-02-19 15:38:00,
2013-02-19 07:43:00,30.6,29.8,29.79,SE,135,0.0,0.0,97,0.00,,,0.00,WUHU21623XXSP,2013-02-19 15:43:00,
2013-02-19 07:48:00,30.7,29.9,29.79,SE,135,0.0,0.0,97,0.00,,,0.00,WUHU21623XXSP,2013-02-19 15:48:00,
2013-02-19 07:54:00,30.9,30.1,29.79,SE,135,0.0,0.0,97,0.00,,,0.00,WUHU21623XXSP,2013-02-19 15:54:00,
2013-02-19 07:58:00,31.1,30.3,29.79,SE,135,0.0,0.0,97,0.00,,,0.00,WUHU21623XXSP,2013-02-19 15:58:00,
2013-02-19 08:04:00,31.6,30.8,29.79,SE,135,0.0,0.0,97,0.00,,,0.00,WUHU21623XXSP,2013-02-19 16:04:00,
2013-02-19 08:09:00,31.8,31.0,29.79,SE,135,0.0,0.0,97,0.00,,,0.00,WUHU21623XXSP,2013-02-19 16:09:00,
2013-02-19 08:14:00,32.2,31.4,29.79,SE,135,0.0,0.0,97,0.00,,,0.00,WUHU21623XXSP,2013-02-19 16:14:00,
2013-02-19 08:20:00,32.2,31.4,29.79,SE,135,0.0,0.0,97,0.00,,,0.00,WUHU21623XXSP,2013-02-19 16:20:00,
2013-02-19 08:25:00,32.4,31.3,29.79,SE,135,0.0,0.0,96,0.00,,,0.00,WUHU21623XXSP,2013-02-19 16:25:00,
2013-02-19 08:40:00,32.7,31.6,29.80,SE,135,0.0,0.0,96,0.00,,,0.00,WUHU21623XXSP,2013-02-19 16:40:00,
2013-02-19 08:45:00,32.7,31.3,29.80,SE,135,0.0,0.0,95,0.00,,,0.00,WUHU21623XXSP,2013-02-19 16:45:00,
2013-02-19 08:50:00,32.7,31.3,29.79,SE,135,0.0,0.0,95,0.00,,,0.00,WUHU21623XXSP,2013-02-19 16:50:00,
2013-02-19 08:55:00,33.1,31.7,29.79,SE,135,0.0,0.0,95,0.00,,,0.00,WUHU21623XXSP,2013-02-19 16:55:00,
2013-02-19 09:00:00,33.3,31.9,29.79,SE,135,0.0,0.0,95,0.00,,,0.00,WUHU21623XXSP,2013-02-19 17:00:00,
2013-02-19 09:05:00,33.4,32.0,29.79,SE,135,0.0,0.0,95,0.00,,,0.00,WUHU21623XXSP,2013-02-19 17:05:00,
2013-02-19 09:10:00,33.6,32.0,29.79,SE,135,0.0,0.0,94,0.00,,,0.00,WUHU21623XXSP,2013-02-19 17:10:00,
2013-02-19 09:15:00,33.8,32.2,29.79,East,90,0.0,0.0,94,0.00,,,0.00,WUHU21623XXSP,2013-02-19 17:15:00,
2013-02-19 09:20:00,33.8,32.2,29.79,East,90,0.0,0.0,94,0.00,,,0.00,WUHU21623XXSP,2013-02-19 17:20:00,
2013-02-19 09:25:00,33.8,31.9,29.79,East,90,0.0,0.0,93,0.00,,,0.00,WUHU21623XXSP,2013-02-19 17:25:00,
2013-02-19 09:30:00,34.0,32.1,29.79,East,90,0.0,0.0,93,0.00,,,0.00,WUHU21623XXSP,2013-02-19 17:30:00,
2013-02-19 09:35:00,34.0,32.1,29.79,East,90,0.0,0.0,93,0.00,,,0.00,WUHU21623XXSP,2013-02-19 17:35:00,
2013-02-19 09:40:00,34.2,32.3,29.79,East,90,0.0,0.0,93,0.00,,,0.00,WUHU21623XXSP,2013-02-19 17:40:00,
2013-02-19 09:45:00,34.3,32.4,29.79,East,90,0.0,0.0,93,0.00,,,0.00,WUHU21623XXSP,2013-02-19 17:45:00,
2013-02-19 09:50:00,34.3,32.4,29.79,East,90,0.0,0.0,93,0.00,,,0.00,WUHU21623XXSP,2013-02-19 17:50:00,
2013-02-19 09:55:00,34.5,32.3,29.79,East,90,0.0,0.0,92,0.00,,,0.00,WUHU21623XXSP,2013-02-19 17:55:00,
2013-02-19 09:59:00,34.7,32.5,29.79,East,90,0.0,0.0,92,0.00,,,0.00,WUHU21623XXSP,2013-02-19 17:59:00,
2013-02-19 10:03:00,34.9,32.7,29.79,East,90,0.0,0.0,92,0.00,,,0.00,WUHU21623XXSP,2013-02-19 18:03:00,
2013-02-19 10:09:00,35.2,32.7,29.79,East,90,0.0,0.0,91,0.00,,,0.00,WUHU21623XXSP,2013-02-19 18:09:00,
2013-02-19 10:16:00,35.2,32.7,29.79,East,90,0.0,0.0,91,0.00,,,0.00,WUHU21623XXSP,2013-02-19 18:16:00,
2013-02-19 10:30:00,35.2,32.7,29.79,East,90,0.0,0.0,91,0.00,,,0.00,WUHU21623XXSP,2013-02-19 18:30:00,
2013-02-19 10:35:00,35.2,32.7,29.79,East,90,0.0,0.0,91,0.00,,,0.00,WUHU21623XXSP,2013-02-19 18:35:00,
2013-02-19 10:40:00,35.4,32.9,29.79,East,90,0.0,0.0,91,0.02,,,0.02,WUHU21623XXSP,2013-02-19 18:40:00,
2013-02-19 10:45:00,35.2,32.5,29.79,East,90,0.0,0.0,90,0.02,,,0.02,WUHU21623XXSP,2013-02-19 18:45:00,
2013-02-19 10:50:00,35.4,32.7,29.79,NE,45,0.0,0.0,90,0.02,,,0.02,WUHU21623XXSP,2013-02-19 18:50:00,
2013-02-19 10:55:00,35.8,33.1,29.79,NE,45,0.0,0.0,90,0.04,,,0.04,WUHU21623XXSP,2013-02-19 18:55:00,
2013-02-19 11:00:00,35.8,33.1,29.79,NNE,22,0.0,0.0,90,0.04,,,0.04,WUHU21623XXSP,2013-02-19 19:00:00,
2013-02-19 11:05:00,35.8,33.1,29.79,NNE,22,0.0,0.0,90,0.06,,,0.06,WUHU21623XXSP,2013-02-19 19:05:00,
2013-02-19 11:10:00,35.8,33.1,29.79,NNE,22,0.0,0.0,90,0.06,,,0.06,WUHU21623XXSP,2013-02-19 19:10:00,
2013-02-19 11:15:00,36.0,33.3,29.79,NNE,22,0.0,0.0,90,0.06,,,0.06,WUHU21623XXSP,2013-02-19 19:15:00,
2013-02-19 11:16:00,36.0,33.3,29.79,NNE,22,0.0,0.0,90,0.06,,,0.06,WUHU21623XXSP,2013-02-19 19:16:00,
2013-02-19 11:20:00,36.1,33.1,29.79,North,0,0.0,0.0,89,0.08,,,0.08,WUHU21623XXSP,2013-02-19 19:20:00,
2013-02-19 11:27:00,36.3,33.3,29.79,North,0,0.0,0.0,89,0.10,,,0.08,WUHU21623XXSP,2013-02-19 19:27:00,
2013-02-19 11:33:00,36.3,33.3,29.79,North,0,0.0,0.0,89,0.08,,,0.10,WUHU21623XXSP,2013-02-19 19:33:00,
2013-02-19 11:48:00,36.3,33.3,29.79,North,0,0.0,0.0,89,0.08,,,0.10,WUHU21623XXSP,2013-02-19 19:48:00,
2013-02-19 11:53:00,36.3,33.3,29.79,North,0,0.0,0.0,89,0.06,,,0.10,WUHU21623XXSP,2013-02-19 19:53:00,
2013-02-19 11:58:00,36.3,33.3,29.79,North,0,0.0,0.0,89,0.06,,,0.10,WUHU21623XXSP,2013-02-19 19:58:00,
2013-02-19 12:03:00,36.5,33.5,29.79,North,0,0.0,0.0,89,0.06,,,0.10,WUHU21623XXSP,2013-02-19 20:03:00,
2013-02-19 12:08:00,36.3,33.3,29.79,North,0,0.0,0.0,89,0.06,,,0.12,WUHU21623XXSP,2013-02-19 20:08:00,
2013-02-19 12:13:00,36.3,33.3,29.79,North,0,0.0,0.0,89,0.06,,,0.12,WUHU21623XXSP,2013-02-19 20:13:00,
2013-02-19 12:18:00,36.3,33.3,29.79,North,0,0.0,0.0,89,0.04,,,0.12,WUHU21623XXSP,2013-02-19 20:18:00,
2013-02-19 12:23:00,36.3,33.3,29.79,North,0,0.0,0.0,89,0.04,,,0.12,WUHU21623XXSP,2013-02-19 20:23:00,
2013-02-19 12:26:00,36.3,33.3,29.79,North,0,0.0,0.0,89,0.02,,,0.12,WUHU21623XXSP,2013-02-19 20:26:00,
2013-02-19 12:28:00,36.3,33.3,29.79,North,0,0.0,0.0,89,0.02,,,0.12,WUHU21623XXSP,2013-02-19 20:28:00,
2013-02-19 12:33:00,36.7,33.4,29.79,North,0,0.0,0.0,88,0.02,,,0.12,WUHU21623XXSP,2013-02-19 20:33:00,
2013-02-19 12:37:00,36.7,33.4,29.79,North,0,0.0,0.0,88,0.02,,,0.12,WUHU21623XXSP,2013-02-19 20:37:00,
2013-02-19 12:44:00,37.2,33.9,29.79,North,0,0.0,0.0,88,0.02,,,0.12,WUHU21623XXSP,2013-02-19 20:44:00,
2013-02-19 12:59:00,37.0,33.4,29.79,North,0,0.0,0.0,87,0.02,,,0.12,WUHU21623XXSP,2013-02-19 20:59:00,
2013-02-19 13:04:00,36.9,33.3,29.79,North,0,0.0,0.0,87,0.00,,,0.12,WUHU21623XXSP,2013-02-19 21:04:00,
2013-02-19 13:09:00,36.7,33.1,29.79,North,0,0.0,0.0,87,0.00,,,0.12,WUHU21623XXSP,2013-02-19 21:09:00,
2013-02-19 13:14:00,36.7,33.1,29.80,North,0,0.0,0.0,87,0.00,,,0.12,WUHU21623XXSP,2013-02-19 21:14:00,
2013-02-19 13:19:00,36.9,33.6,29.80,North,0,0.0,0.0,88,0.02,,,0.12,WUHU21623XXSP,2013-02-19 21:19:00,
2013-02-19 13:24:00,37.0,33.4,29.80,North,0,0.0,0.0,87,0.02,,,0.14,WUHU21623XXSP,2013-02-19 21:24:00,
2013-02-19 13:29:00,37.4,34.1,29.80,North,0,0.0,0.0,88,0.02,,,0.14,WUHU21623XXSP,2013-02-19 21:29:00,
2013-02-19 13:34:00,37.6,34.0,29.80,North,0,0.0,0.0,87,0.02,,,0.14,WUHU21623XXSP,2013-02-19 21:34:00,
2013-02-19 13:39:00,37.8,34.2,29.80,North,0,0.0,0.0,87,0.02,,,0.14,WUHU21623XXSP,2013-02-19 21:39:00,
2013-02-19 13:44:00,37.6,33.7,29.80,North,0,0.0,0.0,86,0.02,,,0.14,WUHU21623XXSP,2013-02-19 21:44:00,
2013-02-19 13:49:00,37.6,33.7,29.80,North,0,0.0,0.0,86,0.02,,,0.14,WUHU21623XXSP,2013-02-19 21:49:00,
2013-02-19 13:54:00,37.6,33.7,29.80,North,0,0.0,0.0,86,0.02,,,0.14,WUHU21623XXSP,2013-02-19 21:54:00,
2013-02-19 13:59:00,37.4,33.8,29.81,North,0,0.0,0.0,87,0.02,,,0.14,WUHU21623XXSP,2013-02-19 21:59:00,
2013-02-19 14:04:00,37.2,33.6,29.81,North,0,0.0,0.0,87,0.02,,,0.14,WUHU21623XXSP,2013-02-19 22:04:00,
2013-02-19 14:09:00,37.2,33.6,29.81,North,0,0.0,0.0,87,0.02,,,0.14,WUHU21623XXSP,2013-02-19 22:09:00,
2013-02-19 14:14:00,37.2,33.6,29.80,North,0,0.0,0.0,87,0.02,,,0.14,WUHU21623XXSP,2013-02-19 22:14:00,
2013-02-19 14:19:00,37.8,34.5,29.81,North,0,0.0,0.0,88,0.00,,,0.14,WUHU21623XXSP,2013-02-19 22:19:00,
2013-02-19 14:24:00,38.5,35.2,29.81,North,0,0.0,0.0,88,0.00,,,0.14,WUHU21623XXSP,2013-02-19 22:24:00,
2013-02-19 14:29:00,39.7,36.3,29.81,North,0,0.0,0.0,88,0.00,,,0.14,WUHU21623XXSP,2013-02-19 22:29:00,
2013-02-19 14:34:00,40.1,36.5,29.81,North,0,0.0,0.0,87,0.00,,,0.14,WUHU21623XXSP,2013-02-19 22:34:00,
2013-02-19 14:39:00,40.3,36.7,29.81,NW,315,0.0,0.0,87,0.00,,,0.14,WUHU21623XXSP,2013-02-19 22:39:00,
2013-02-19 14:44:00,40.1,36.2,29.81,WNW,292,0.0,0.0,86,0.00,,,0.14,WUHU21623XXSP,2013-02-19 22:44:00,
2013-02-19 14:49:00,39.9,36.0,29.81,WNW,292,0.0,0.0,86,0.00,,,0.14,WUHU21623XXSP,2013-02-19 22:49:00,
2013-02-19 14:50:00,39.9,36.0,29.81,WNW,292,0.0,0.0,86,0.00,,,0.14,WUHU21623XXSP,2013-02-19 22:50:00,
2013-02-19 14:54:00,39.6,35.7,29.81,WNW,292,0.0,0.0,86,0.00,,,0.14,WUHU21623XXSP,2013-02-19 22:54:00,
2013-02-19 15:01:00,39.0,35.1,29.81,WNW,292,0.0,0.0,86,0.00,,,0.14,WUHU21623XXSP,2013-02-19 23:01:00,
2013-02-19 15:07:00,38.5,34.6,29.81,WNW,292,0.0,0.0,86,0.00,,,0.14,WUHU21623XXSP,2013-02-19 23:07:00,
2013-02-19 15:21:00,38.1,34.2,29.81,WNW,292,0.0,0.0,86,0.00,,,0.14,WUHU21623XXSP,2013-02-19 23:21:00,
2013-02-19 15:26:00,37.6,34.0,29.82,WNW,292,0.0,0.0,87,0.00,,,0.14,WUHU21623XXSP,2013-02-19 23:26:00,
2013-02-19 15:31:00,37.6,34.3,29.82,WNW,292,0.0,0.0,88,0.00,,,0.14,WUHU21623XXSP,2013-02-19 23:31:00,
2013-02-19 15:36:00,37.4,34.1,29.82,WNW,292,0.0,0.0,88,0.00,,,0.14,WUHU21623XXSP,2013-02-19 23:36:00,
2013-02-19 15:41:00,37.2,33.9,29.82,WNW,292,0.0,0.0,88,0.00,,,0.14,WUHU21623XXSP,2013-02-19 23:41:00,
2013-02-19 15:46:00,36.7,33.7,29.82,WNW,292,0.0,0.0,89,0.00,,,0.14,WUHU21623XXSP,2013-02-19 23:46:00,
2013-02-19 15:51:00,36.7,33.7,29.82,West,270,0.0,0.0,89,0.00,,,0.14,WUHU21623XXSP,2013-02-19 23:51:00,
2013-02-19 15:56:00,36.5,33.5,29.82,West,270,0.9,3.6,89,0.00,,,0.14,WUHU21623XXSP,2013-02-19 23:56:00,
2013-02-19 16:01:00,36.3,33.3,29.82,WSW,247,0.0,3.6,89,0.00,,,0.14,WUHU21623XXSP,2013-02-20 00:01:00,
2013-02-19 16:06:00,36.3,33.3,29.82,WSW,247,0.0,0.0,89,0.00,,,0.14,WUHU21623XXSP,2013-02-20 00:06:00,
2013-02-19 16:11:00,36.1,33.1,29.83,WSW,247,0.0,0.0,89,0.00,,,0.14,WUHU21623XXSP,2013-02-20 00:11:00,
2013-02-19 16:16:00,36.1,33.1,29.82,WSW,247,5.1,5.1,89,0.00,,,0.14,WUHU21623XXSP,2013-02-20 00:16:00,
2013-02-19 16:21:00,36.0,33.0,29.83,WSW,247,0.0,5.1,89,0.00,,,0.14,WUHU21623XXSP,2013-02-20 00:21:00,
2013-02-19 16:26:00,35.8,32.8,29.82,WSW,247,0.0,0.0,89,0.00,,,0.14,WUHU21623XXSP,2013-02-20 00:26:00,
2013-02-19 16:31:00,35.4,32.4,29.83,WSW,247,0.0,0.0,89,0.00,,,0.14,WUHU21623XXSP,2013-02-20 00:31:00,
2013-02-19 16:36:00,35.2,32.2,29.83,WSW,247,0.0,0.0,89,0.00,,,0.14,WUHU21623XXSP,2013-02-20 00:36:00,
2013-02-19 16:41:00,35.1,32.1,29.83,WSW,247,0.0,0.0,89,0.00,,,0.14,WUHU21623XXSP,2013-02-20 00:41:00,
2013-02-19 16:46:00,34.7,32.0,29.82,WSW,247,0.0,0.0,90,0.00,,,0.14,WUHU21623XXSP,2013-02-20 00:46:00,
2013-02-19 16:51:00,34.5,31.8,29.82,WSW,247,0.0,0.0,90,0.00,,,0.14,WUHU21623XXSP,2013-02-20 00:51:00,
2013-02-19 16:56:00,34.3,31.6,29.83,WSW,247,0.0,0.0,90,0.00,,,0.14,WUHU21623XXSP,2013-02-20 00:56:00,
2013-02-19 17:01:00,34.0,31.3,29.83,WSW,247,0.0,0.0,90,0.00,,,0.14,WUHU21623XXSP,2013-02-20 01:01:00,
2013-02-19 17:06:00,33.4,30.7,29.83,WSW,247,0.0,0.0,90,0.00,,,0.14,WUHU21623XXSP,2013-02-20 01:06:00,
2013-02-19 17:11:00,33.1,30.4,29.83,WSW,247,0.0,0.0,90,0.00,,,0.14,WUHU21623XXSP,2013-02-20 01:11:00,
2013-02-19 17:17:00,32.5,29.8,29.83,WSW,247,0.0,0.0,90,0.00,,,0.14,WUHU21623XXSP,2013-02-20 01:17:00,
2013-02-19 17:22:00,32.2,29.5,29.83,WSW,247,0.0,0.0,90,0.00,,,0.14,WUHU21623XXSP,2013-02-20 01:22:00,
2013-02-19 17:28:00,31.8,29.4,29.83,WSW,247,0.0,0.0,91,0.00,,,0.14,WUHU21623XXSP,2013-02-20 01:28:00,
2013-02-19 17:33:00,31.3,28.9,29.84,WSW,247,0.0,0.0,91,0.00,,,0.14,WUHU21623XXSP,2013-02-20 01:33:00,
2013-02-19 17:38:00,31.1,28.7,29.83,WSW,247,0.0,0.0,91,0.00,,,0.14,WUHU21623XXSP,2013-02-20 01:38:00,
2013-02-19 17:43:00,30.9,28.5,29.84,WSW,247,0.0,0.0,91,0.00,,,0.14,WUHU21623XXSP,2013-02-20 01:43:00,
2013-02-19 17:48:00,31.1,28.9,29.84,WSW,247,0.0,0.0,92,0.00,,,0.14,WUHU21623XXSP,2013-02-20 01:48:00,
2013-02-19 17:53:00,31.3,29.1,29.84,WSW,247,0.0,0.0,92,0.00,,,0.14,WUHU21623XXSP,2013-02-20 01:53:00,
2013-02-19 17:58:00,31.5,29.3,29.85,WSW,247,0.0,0.0,92,0.00,,,0.14,WUHU21623XXSP,2013-02-20 01:58:00,
2013-02-19 18:03:00,31.6,29.7,29.84,WSW,247,6.9,6.9,93,0.00,,,0.14,WUHU21623XXSP,2013-02-20 02:03:00,
2013-02-19 18:08:00,31.8,29.9,29.85,WSW,247,0.0,6.9,93,0.00,,,0.14,WUHU21623XXSP,2013-02-20 02:08:00,
2013-02-19 18:13:00,31.8,30.2,29.85,WSW,247,0.0,6.9,94,0.00,,,0.14,WUHU21623XXSP,2013-02-20 02:13:00,
2013-02-19 18:18:00,32.2,30.6,29.85,WSW,247,0.0,2.5,94,0.00,,,0.14,WUHU21623XXSP,2013-02-20 02:18:00,
2013-02-19 18:23:00,32.2,30.6,29.85,WSW,247,8.3,8.3,94,0.00,,,0.14,WUHU21623XXSP,2013-02-20 02:23:00,
2013-02-19 18:28:00,32.2,30.6,29.85,WSW,247,7.8,8.3,94,0.00,,,0.14,WUHU21623XXSP,2013-02-20 02:28:00,
2013-02-19 18:33:00,32.2,30.6,29.85,WSW,247,0.0,7.8,94,0.00,,,0.14,WUHU21623XXSP,2013-02-20 02:33:00,
2013-02-19 18:38:00,32.2,30.6,29.85,WSW,247,0.0,7.8,94,0.00,,,0.14,WUHU21623XXSP,2013-02-20 02:38:00,
2013-02-19 18:43:00,32.4,30.8,29.86,WSW,247,0.0,0.0,94,0.00,,,0.14,WUHU21623XXSP,2013-02-20 02:43:00,
2013-02-19 18:48:00,32.4,30.8,29.86,WSW,247,0.0,0.0,94,0.00,,,0.14,WUHU21623XXSP,2013-02-20 02:48:00,
2013-02-19 18:53:00,32.4,30.8,29.86,WSW,247,0.0,0.0,94,0.00,,,0.14,WUHU21623XXSP,2013-02-20 02:53:00,
2013-02-19 18:58:00,32.4,30.5,29.86,WSW,247,0.0,0.0,93,0.00,,,0.14,WUHU21623XXSP,2013-02-20 02:58:00,
2013-02-19 19:03:00,32.2,30.6,29.86,WSW,247,0.0,0.0,94,0.00,,,0.14,WUHU21623XXSP,2013-02-20 03:03:00,
2013-02-19 19:08:00,32.2,30.6,29.86,WSW,247,0.0,0.0,94,0.00,,,0.14,WUHU21623XXSP,2013-02-20 03:08:00,
2013-02-19 19:13:00,32.2,30.6,29.86,WSW,247,0.0,0.0,94,0.00,,,0.14,WUHU21623XXSP,2013-02-20 03:13:00,
2013-02-19 19:18:00,32.0,30.4,29.86,WSW,247,0.0,0.0,94,0.00,,,0.14,WUHU21623XXSP,2013-02-20 03:18:00,
2013-02-19 19:23:00,31.8,30.2,29.86,WSW,247,0.0,0.0,94,0.00,,,0.14,WUHU21623XXSP,2013-02-20 03:23:00,
2013-02-19 19:28:00,31.8,30.2,29.86,WSW,247,0.0,0.0,94,0.00,,,0.14,WUHU21623XXSP,2013-02-20 03:28:00,
2013-02-19 19:33:00,31.8,30.2,29.86,WSW,247,0.0,0.0,94,0.00,,,0.14,WUHU21623XXSP,2013-02-20 03:33:00,
2013-02-19 19:38:00,31.8,30.2,29.86,WSW,247,0.0,0.0,94,0.00,,,0.14,WUHU21623XXSP,2013-02-20 03:38:00,
2013-02-19 19:43:00,31.8,30.2,29.86,WSW,247,0.0,0.0,94,0.00,,,0.14,WUHU21623XXSP,2013-02-20 03:43:00,
2013-02-19 19:48:00,31.8,29.9,29.87,WSW,247,0.0,0.0,93,0.00,,,0.14,WUHU21623XXSP,2013-02-20 03:48:00,
2013-02-19 19:53:00,31.8,29.9,29.87,WSW,247,0.0,0.0,93,0.00,,,0.14,WUHU21623XXSP,2013-02-20 03:53:00,
2013-02-19 19:58:00,31.6,29.7,29.87,WSW,247,0.0,0.0,93,0.00,,,0.14,WUHU21623XXSP,2013-02-20 03:58:00,
2013-02-19 20:03:00,31.3,29.1,29.87,WSW,247,0.0,0.0,92,0.00,,,0.14,WUHU21623XXSP,2013-02-20 04:03:00,
2013-02-19 20:08:00,31.1,28.9,29.87,WSW,247,0.0,0.0,92,0.00,,,0.14,WUHU21623XXSP,2013-02-20 04:08:00,
2013-02-19 20:13:00,30.9,28.7,29.87,WSW,247,0.0,0.0,92,0.00,,,0.14,WUHU21623XXSP,2013-02-20 04:13:00,
2013-02-19 20:18:00,30.4,28.3,29.87,WSW,247,0.0,0.0,92,0.00,,,0.14,WUHU21623XXSP,2013-02-20 04:18:00,
2013-02-19 20:23:00,30.0,27.9,29.87,WSW,247,0.0,0.0,92,0.00,,,0.14,WUHU21623XXSP,2013-02-20 04:23:00,
2013-02-19 20:28:00,29.7,27.6,29.87,WSW,247,0.0,0.0,92,0.00,,,0.14,WUHU21623XXSP,2013-02-20 04:28:00,
2013-02-19 20:33:00,29.5,27.4,29.87,WSW,247,0.0,0.0,92,0.00,,,0.14,WUHU21623XXSP,2013-02-20 04:33:00,
2013-02-19 20:38:00,29.3,27.2,29.87,WSW,247,0.0,0.0,92,0.00,,,0.14,WUHU21623XXSP,2013-02-20 04:38:00,
2013-02-19 20:43:00,29.1,27.0,29.88,WSW,247,0.0,0.0,92,0.00,,,0.14,WUHU21623XXSP,2013-02-20 04:43:00,
2013-02-19 20:48:00,28.8,26.7,29.88,WSW,247,0.0,0.0,92,0.00,,,0.14,WUHU21623XXSP,2013-02-20 04:48:00,
2013-02-19 20:53:00,28.6,26.5,29.88,WSW,247,0.0,0.0,92,0.00,,,0.14,WUHU21623XXSP,2013-02-20 04:53:00,
2013-02-19 20:58:00,28.8,26.7,29.88,WSW,247,0.0,0.0,92,0.00,,,0.14,WUHU21623XXSP,2013-02-20 04:58:00,
2013-02-19 21:00:00,28.8,26.7,29.88,WSW,247,0.0,0.0,92,0.00,,,0.14,WUHU21623XXSP,2013-02-20 05:00:00,
2013-02-19 21:01:00,28.8,26.9,29.88,WSW,247,0.0,0.0,93,0.00,,,0.14,WUHU21623XXSP,2013-02-20 05:01:00,
2013-02-19 21:06:00,28.9,27.0,29.88,WSW,247,0.0,0.0,93,0.00,,,0.14,WUHU21623XXSP,2013-02-20 05:06:00,
2013-02-19 21:11:00,29.1,27.2,29.88,WSW,247,0.0,0.0,93,0.00,,,0.14,WUHU21623XXSP,2013-02-20 05:11:00,
2013-02-19 21:16:00,29.3,27.4,29.88,WSW,247,0.0,0.0,93,0.00,,,0.14,WUHU21623XXSP,2013-02-20 05:16:00,
2013-02-19 21:21:00,29.5,27.6,29.88,WSW,247,0.0,0.0,93,0.00,,,0.14,WUHU21623XXSP,2013-02-20 05:21:00,
2013-02-19 21:26:00,29.8,27.9,29.89,WSW,247,0.0,0.0,93,0.00,,,0.14,WUHU21623XXSP,2013-02-20 05:26:00,
2013-02-19 21:31:00,30.0,28.1,29.89,WSW,247,0.0,0.0,93,0.00,,,0.14,WUHU21623XXSP,2013-02-20 05:31:00,
2013-02-19 21:36:00,30.0,28.1,29.89,WSW,247,0.0,0.0,93,0.00,,,0.14,WUHU21623XXSP,2013-02-20 05:36:00,
2013-02-19 21:41:00,30.2,28.3,29.89,WSW,247,0.0,0.0,93,0.00,,,0.14,WUHU21623XXSP,2013-02-20 05:41:00,
2013-02-19 21:46:00,30.4,28.5,29.89,WSW,247,0.0,0.0,93,0.00,,,0.14,WUHU21623XXSP,2013-02-20 05:46:00,
2013-02-19 21:51:00,30.4,28.5,29.89,WSW,247,0.0,0.0,93,0.00,,,0.14,WUHU21623XXSP,2013-02-20 05:51:00,
2013-02-19 21:52:00,30.4,28.5,29.89,WSW,247,0.0,0.0,93,0.00,,,0.14,WUHU21623XXSP,2013-02-20 05:52:00,
2013-02-19 21:56:00,30.4,28.5,29.89,WSW,247,0.0,0.0,93,0.00,,,0.14,WUHU21623XXSP,2013-02-20 05:56:00,
2013-02-19 22:03:00,30.0,28.1,29.89,WSW,247,4.3,4.3,93,0.00,,,0.14,WUHU21623XXSP,2013-02-20 06:03:00,
2013-02-19 22:07:00,30.2,28.3,29.89,WSW,247,0.0,4.3,93,0.00,,,0.14,WUHU21623XXSP,2013-02-20 06:07:00,
2013-02-19 22:23:00,29.7,27.8,29.89,WSW,247,0.0,0.0,93,0.00,,,0.14,WUHU21623XXSP,2013-02-20 06:23:00,
2013-02-19 22:28:00,29.5,27.6,29.90,WSW,247,0.0,0.0,93,0.00,,,0.14,WUHU21623XXSP,2013-02-20 06:28:00,
2013-02-19 22:33:00,29.3,27.4,29.90,WSW,247,1.6,1.6,93,0.00,,,0.14,WUHU21623XXSP,2013-02-20 06:33:00,
2013-02-19 22:38:00,29.1,27.5,29.90,WSW,247,0.0,2.7,94,0.00,,,0.14,WUHU21623XXSP,2013-02-20 06:38:00,
2013-02-19 22:43:00,29.1,27.5,29.90,WSW,247,0.0,2.7,94,0.00,,,0.14,WUHU21623XXSP,2013-02-20 06:43:00,
2013-02-19 22:48:00,29.1,27.5,29.90,WSW,247,0.0,1.1,94,0.00,,,0.14,WUHU21623XXSP,2013-02-20 06:48:00,
2013-02-19 22:53:00,29.3,27.7,29.90,WSW,247,0.0,1.1,94,0.00,,,0.14,WUHU21623XXSP,2013-02-20 06:53:00,
2013-02-19 22:58:00,29.3,27.7,29.90,WSW,247,0.0,0.0,94,0.00,,,0.14,WUHU21623XXSP,2013-02-20 06:58:00,
2013-02-19 23:03:00,29.5,27.9,29.90,WSW,247,2.2,2.2,94,0.00,,,0.14,WUHU21623XXSP,2013-02-20 07:03:00,
2013-02-19 23:08:00,29.7,28.3,29.91,WSW,247,6.3,6.3,95,0.00,,,0.14,WUHU21623XXSP,2013-02-20 07:08:00,
2013-02-19 23:13:00,29.8,28.4,29.91,WSW,247,5.6,6.3,95,0.00,,,0.14,WUHU21623XXSP,2013-02-20 07:13:00,
2013-02-19 23:18:00,30.0,28.6,29.91,WSW,247,6.7,6.7,95,0.00,,,0.14,WUHU21623XXSP,2013-02-20 07:18:00,
2013-02-19 23:23:00,30.2,29.1,29.91,WSW,247,4.7,6.7,96,0.00,,,0.14,WUHU21623XXSP,2013-02-20 07:23:00,
2013-02-19 23:28:00,30.2,29.1,29.91,WSW,247,0.0,4.7,96,0.00,,,0.14,WUHU21623XXSP,2013-02-20 07:28:00,
2013-02-19 23:33:00,30.0,28.9,29.91,WSW,247,0.0,1.3,96,0.00,,,0.14,WUHU21623XXSP,2013-02-20 07:33:00,
2013-02-19 23:38:00,30.0,28.9,29.91,WSW,247,0.0,1.3,96,0.00,,,0.14,WUHU21623XXSP,2013-02-20 07:38:00,
2013-02-19 23:43:00,30.0,28.9,29.91,WSW,247,3.8,3.8,96,0.00,,,0.14,WUHU21623XXSP,2013-02-20 07:43:00,
2013-02-19 23:48:00,30.0,28.9,29.91,WSW,247,0.0,3.8,96,0.00,,,0.14,WUHU21623XXSP,2013-02-20 07:48:00,
2013-02-19 23:53:00,30.0,28.9,29.91,WSW,247,0.0,3.8,96,0.00,,,0.14,WUHU21623XXSP,2013-02-20 07:53:00,
2013-02-19 23:58:00,30.0,28.9,29.91,WSW,247,0.0,0.0,96,0.00,,,0.14,WUHU21623XXSP,2013-02-20 07:58:00,